Humboldt, Illinois
Current Conditions -  °F | °C
As of 2:53 AM on Sunday 23 Nov 2014 (Local Time) from KMTO Reporting Station
Overcast Overcast  
Wind Chill: 50°   Ceiling: 11000
Heat Index: 50°   Visibility: 10mi
Dew Point: 40°   Wind: 13mph
Humidity: 68%   Direction: 170°S
Pressure: 29.85"   Gusts: NA
Location:  39.6°N, 88.32°W
Report Text: KMTO 230853Z AUTO 17011KT 10SM OVC110 10/04 A2985 RMK AO2 SLP107 60000 T01000044 56021
Loading
Personal Weather Stations






























Interactive Weather Map New forecast layout! Learn more

10-Day Weather Forecast

Advertisements
Track Severe Weather on mobile